Terminal Aerodrome Forecast
Issued by NWS Duluth, MN

Home | Current Version | Previous Version | Text Only | Print | Product List | Glossary On
Versions: 1 2 3 4 5 6 7 8 9 10 11 12 13 14 15 16 17 18 19 20 21 22 23 24 25 26 27 28 29 30
000
FTUS43 KDLH 302100 AAA
TAFDLH
TAF AMD
KDLH 302100Z 3021/3118 31014G23KT P6SM VCSH SCT016 BKN035
      TEMPO 3021/3023 5SM -SHRA BR BKN016 OVC025
     FM302300 33019G27KT P6SM SCT025 BKN050
     FM310200 35020G28KT P6SM SCT025
     FM310800 36014G21KT P6SM SCT050
     FM311600 01013G20KT P6SM SKC=

USA.gov is the U.S. government's official web portal to all federal, state and local government web resources and services.